Terminal Aerodrome Forecast
Issued by NWS

Home | Current Version | Previous Version | Graphics & Text | Print | Product List | Glossary On
Versions: 1 2 3 4 5 6 7 8 9 10 11 12 13 14 15 16 17
606
FTUS43 KICT 231732
TAFHUT
TAF
KHUT 231732Z 2318/2418 18015G22KT P6SM FEW050
     FM240100 16012KT P6SM SCT080 BKN150
     FM241200 16012G18KT P6SM VCSH SCT015 BKN040=

USA.gov is the U.S. government's official web portal to all federal, state and local government web resources and services.